This is the latest recevied weather packets stored in our database for station/object AD7ZD. If no packets are shown the sender has not sent any weather packets the latest 10 day(s).
| Time | Temp. | Humidity | Pressure | Rain* | Wind** | Luminosity | Snow |
|---|---|---|---|---|---|---|---|
| 1777789810 | 19.44° C | 29% | 1011.7 hPa | 0 mm | - | 0 W/m² | - |
| 1777789508 | 18.89° C | 31% | 1011.6 hPa | 0 mm | - | 0 W/m² | - |
| 1777789206 | 18.33° C | 33% | 1011.9 hPa | 0 mm | - | 0 W/m² | - |
| 1777788903 | 18.89° C | 32% | 1012 hPa | 0 mm | - | 0 W/m² | - |
| 1777788599 | 17.78° C | 35% | 1012.1 hPa | 0 mm | - | 0 W/m² | - |
| 1777788299 | 17.78° C | 36% | 1012.2 hPa | 0 mm | - | 0 W/m² | - |
| 1777787995 | 17.78° C | 36% | 1012.2 hPa | 0 mm | - | 0 W/m² | - |
| 1777787690 | 17.78° C | 37% | 1012.2 hPa | 0 mm | - | 0 W/m² | - |
| 1777787386 | 17.78° C | 37% | 1012.1 hPa | 0 mm | - | 0 W/m² | - |
| 1777787082 | 17.78° C | 38% | 1012 hPa | 0 mm | - | 0 W/m² | - |
| 1777786780 | 17.78° C | 36% | 1012.2 hPa | 0 mm | - | 0 W/m² | - |
| 1777786477 | 17.78° C | 36% | 1012 hPa | 0 mm | - | 0 W/m² | - |
| 1777786174 | 16.67° C | 39% | 1012 hPa | 0 mm | - | 0 W/m² | - |
| 1777785872 | 16.67° C | 39% | 1012 hPa | 0 mm | - | 0 W/m² | - |
| 1777785567 | 16.67° C | 38% | 1011.8 hPa | 0 mm | - | 0 W/m² | - |
| 1777785263 | 17.78° C | 36% | 1011.3 hPa | 0 mm | - | 0 W/m² | - |
| 1777784961 | 17.22° C | 35% | 1011.3 hPa | 0 mm | - | 0 W/m² | - |
| 1777784657 | 16.67° C | 38% | 1011.7 hPa | 0 mm | - | 0 W/m² | - |
| 1777784355 | 16.67° C | 40% | 1011.7 hPa | 0 mm | - | 0 W/m² | - |
| 1777784052 | 16.11° C | 41% | 1011.4 hPa | 0 mm | - | 0 W/m² | - |
| 1777783748 | 16.67° C | 40% | 1011.1 hPa | 0 mm | - | 0 W/m² | - |
| 1777783445 | 17.22° C | 38% | 1011.1 hPa | 0 mm | - | 0 W/m² | - |
| 1777783143 | 17.22° C | 37% | 1011.3 hPa | 0 mm | - | 0 W/m² | - |
| 1777782839 | 16.67° C | 39% | 1011.4 hPa | 0 mm | - | 0 W/m² | - |
| 1777782535 | 16.67° C | 41% | 1011.4 hPa | 0 mm | - | 0 W/m² | - |
* Rain latest hour (hover to see other rain measurements)
** Current wind speed in m/s (hover to see current wind gust speed)